Portada
METAR-TAF:

METAR-TAF

Aeroports :

William H. Morse State Airport

Bennington, Vermont, Estats Units d'Amèrica

latitud: 42-53-24N, longitud: 073-14-47W, altitud: 252 m

Observació

L'informe es va fer fa 35 minuts, a les 23:54 UTC
Vent calma
Temperatura 21°C
Humitat 83%
Pressió 1017 hPa
Visibilitat: 16.1 km
Cel clar

METAR: KDDH 152354Z AUTO 00000KT 10SM CLR 21/18 A3004 RMK AO2 SLP170 T02110178 10261 20211 53000

Hora: 20:29 (00:29 UTC)


TAF: manca

Observacions i pronòstics meteorològics de més de 4000 aeroports (METAR i TAF).

Les estacions disponibles són els punts grocs i vermells al mapa.

Posi el ratolí al punt desitjat per veure el nom de l'estació.

Feu clic per veure les observacions i els pronòstics meteorològics.

Per canviar el mapa: feu clic els botons verds amb una creu de color negre per apropar; al botó verd amb un guió per allunyar la imatge; o en les fletxes verdes per a mapes adjacents.


METAR-TAF: